Time;durP1;ratioP1;P1;durP2;ratioP2;P2;SDS_P1;SDS_P2;PMS_P1;PMS_P2;Temp;Humidity;BMP_temperature;BMP_pressure;BME280_temperature;BME280_humidity;BME280_pressure;Samples;Min_cycle;Max_cycle;Signal;HPM_P1;HPM_P2
2022/08/18 00:02:24;;;;;;;13.75;5.35;;;18.90;99.90;;;;;;6149337;23;20017;-85
2022/08/18 00:04:51;;;;;;;13.13;5.72;;;18.90;99.90;;;;;;6174747;23;20399;-86
2022/08/18 00:07:23;;;;;;;14.27;5.05;;;18.90;99.90;;;;;;6149748;23;20051;-86
2022/08/18 00:09:49;;;;;;;17.40;5.63;;;18.90;99.90;;;;;;6149557;23;20082;-85
2022/08/18 00:12:22;;;;;;;11.30;5.57;;;18.80;99.90;;;;;;6150018;22;20052;-85
2022/08/18 00:14:48;;;;;;;21.92;6.80;;;18.80;99.90;;;;;;6175549;23;20017;-86
2022/08/18 00:17:15;;;;;;;19.65;7.75;;;18.90;99.90;;;;;;6150355;23;20020;-86
2022/08/18 00:19:41;;;;;;;15.25;5.70;;;19.10;99.90;;;;;;6149346;23;20013;-86
2022/08/18 00:22:08;;;;;;;13.30;6.32;;;18.80;99.90;;;;;;6176782;23;20028;-86
2022/08/18 00:24:33;;;;;;;11.55;6.32;;;18.90;99.90;;;;;;6124706;23;20013;-85
2022/08/18 00:27:00;;;;;;;17.15;6.82;;;18.80;99.90;;;;;;6149751;23;20052;-86
2022/08/18 00:29:26;;;;;;;15.18;6.80;;;18.80;99.90;;;;;;6149401;23;20039;-86
2022/08/18 00:31:51;;;;;;;14.50;6.38;;;18.80;99.90;;;;;;6176074;23;20009;-86
2022/08/18 00:34:17;;;;;;;16.77;6.05;;;18.80;99.90;;;;;;6149248;23;20023;-85
2022/08/18 00:36:43;;;;;;;14.25;5.75;;;18.70;99.90;;;;;;6176491;23;20016;-85
2022/08/18 00:39:08;;;;;;;14.38;6.88;;;18.70;99.90;;;;;;6149675;23;20497;-85
2022/08/18 00:41:34;;;;;;;16.48;6.20;;;18.70;99.90;;;;;;6176295;23;20036;-85
2022/08/18 00:44:00;;;;;;;16.63;6.82;;;18.70;99.90;;;;;;6175950;23;20060;-85
2022/08/18 00:46:30;;;;;;;16.23;6.63;;;18.70;99.90;;;;;;6125599;23;20053;-86
2022/08/18 00:48:56;;;;;;;12.80;6.32;;;18.80;99.90;;;;;;6123844;23;20410;-85
2022/08/18 00:51:36;;;;;;;16.05;7.40;;;18.70;99.90;;;;;;6176256;23;20337;-86
2022/08/18 00:54:08;;;;;;;14.05;7.55;;;18.70;99.90;;;;;;6148800;23;20025;-86
2022/08/18 00:56:43;;;;;;;18.88;8.13;;;18.70;99.90;;;;;;6149169;23;20013;-85
2022/08/18 00:59:19;;;;;;;15.23;8.27;;;18.70;99.90;;;;;;6149211;23;20049;-86
2022/08/18 01:01:49;;;;;;;16.17;8.77;;;18.70;99.90;;;;;;6149017;23;20353;-85
2022/08/18 01:04:32;;;;;;;14.88;6.90;;;18.80;99.90;;;;;;6175453;23;20091;-86
2022/08/18 01:07:03;;;;;;;12.70;7.13;;;18.80;99.90;;;;;;6125204;23;20013;-85
2022/08/18 01:09:29;;;;;;;21.05;10.57;;;18.70;99.90;;;;;;6124932;23;20043;-86
2022/08/18 01:11:55;;;;;;;16.30;9.32;;;18.70;99.90;;;;;;6149259;23;20485;-86
2022/08/18 01:14:21;;;;;;;18.42;9.70;;;18.80;99.90;;;;;;6176090;23;20051;-86
2022/08/18 01:22:31;;;;;;;20.30;9.88;;;18.80;99.90;;;;;;6176170;22;20017;-86
2022/08/18 01:27:44;;;;;;;18.65;11.20;;;18.80;99.90;;;;;;6175776;22;20053;-86
2022/08/18 01:30:14;;;;;;;15.93;9.90;;;18.90;99.90;;;;;;6149239;23;20044;-86
2022/08/18 01:32:44;;;;;;;17.17;9.57;;;18.80;99.90;;;;;;6148752;23;20017;-86
2022/08/18 01:35:12;;;;;;;17.38;9.27;;;18.80;99.90;;;;;;6176350;23;20017;-85
2022/08/18 01:37:37;;;;;;;16.48;8.40;;;18.80;99.90;;;;;;6175664;23;20017;-85
2022/08/18 01:40:07;;;;;;;14.82;8.40;;;18.90;99.90;;;;;;6148916;23;20013;-85
2022/08/18 01:42:35;;;;;;;21.73;8.90;;;18.80;99.90;;;;;;6149325;23;20017;-86
2022/08/18 01:45:03;;;;;;;16.92;8.35;;;18.80;99.90;;;;;;6175752;23;20104;-84
2022/08/18 01:47:30;;;;;;;16.52;8.02;;;18.70;99.90;;;;;;6148407;23;20020;-86
2022/08/18 01:49:57;;;;;;;16.33;8.85;;;18.70;99.90;;;;;;6175235;23;20013;-85
2022/08/18 01:52:23;;;;;;;16.65;7.55;;;18.80;99.90;;;;;;6149847;23;20332;-86
2022/08/18 01:54:49;;;;;;;19.45;8.43;;;18.60;99.90;;;;;;6148283;23;20021;-85
2022/08/18 01:57:16;;;;;;;18.08;7.13;;;18.60;99.90;;;;;;6149611;23;20025;-85
2022/08/18 01:59:42;;;;;;;14.32;6.60;;;18.70;99.90;;;;;;6148743;23;20028;-85
2022/08/18 02:02:11;;;;;;;13.32;6.25;;;18.50;99.90;;;;;;6175246;23;20084;-86
2022/08/18 02:04:37;;;;;;;14.13;6.20;;;18.50;99.90;;;;;;6174657;23;20467;-86
2022/08/18 02:07:06;;;;;;;23.52;7.47;;;18.40;99.90;;;;;;6150686;23;20009;-85
2022/08/18 02:09:32;;;;;;;12.75;7.25;;;18.50;99.90;;;;;;6177191;23;20059;-85
2022/08/18 02:11:59;;;;;;;15.48;6.72;;;18.60;99.90;;;;;;6125387;23;20013;-85
2022/08/18 02:14:24;;;;;;;18.83;7.65;;;18.50;99.90;;;;;;6150674;23;20017;-85
2022/08/18 02:16:50;;;;;;;18.02;7.25;;;18.50;99.90;;;;;;6149404;23;20461;-85
2022/08/18 02:19:15;;;;;;;13.52;6.13;;;18.50;99.90;;;;;;6150603;23;20021;-85
2022/08/18 02:21:41;;;;;;;17.52;6.95;;;18.50;99.90;;;;;;6125210;23;20025;-85
2022/08/18 02:24:06;;;;;;;13.82;6.50;;;18.60;99.90;;;;;;6150660;23;20092;-86
2022/08/18 02:26:32;;;;;;;21.10;7.60;;;18.50;99.90;;;;;;6149854;23;20013;-85
2022/08/18 02:28:58;;;;;;;19.95;7.30;;;18.50;99.90;;;;;;6176934;23;20032;-85
2022/08/18 02:31:24;;;;;;;17.60;7.40;;;18.50;99.90;;;;;;6176275;23;20013;-85
2022/08/18 02:33:50;;;;;;;20.00;7.40;;;18.50;99.90;;;;;;6149938;23;20017;-86
2022/08/18 02:36:16;;;;;;;16.80;7.57;;;18.60;99.90;;;;;;6125741;23;20061;-85
2022/08/18 02:38:43;;;;;;;15.93;7.40;;;18.60;99.90;;;;;;6149797;23;20381;-85
2022/08/18 02:41:11;;;;;;;15.93;7.38;;;18.60;99.90;;;;;;6150389;23;20096;-85
2022/08/18 02:43:38;;;;;;;17.05;7.35;;;18.60;99.90;;;;;;6176454;23;20017;-85
2022/08/18 02:46:05;;;;;;;15.82;7.60;;;18.50;99.90;;;;;;6149658;23;20070;-86
2022/08/18 02:48:34;;;;;;;16.02;7.57;;;18.60;99.90;;;;;;6176695;23;20017;-85
2022/08/18 02:51:13;;;;;;;14.93;7.80;;;18.60;99.90;;;;;;6171924;23;20017;-85
2022/08/18 02:53:41;;;;;;;13.05;7.43;;;18.60;99.90;;;;;;6149764;22;20021;-85
2022/08/18 02:58:45;;;;;;;17.27;8.07;;;18.60;99.90;;;;;;6174362;23;20092;-85
2022/08/18 03:01:10;;;;;;;22.02;9.02;;;18.60;99.90;;;;;;6174516;22;20476;-86
2022/08/18 03:03:36;;;;;;;19.77;8.77;;;18.60;99.90;;;;;;6175994;23;20025;-85
2022/08/18 03:06:03;;;;;;;20.73;8.13;;;18.60;99.90;;;;;;6174890;22;20028;-86
2022/08/18 03:08:28;;;;;;;21.98;9.48;;;18.60;99.90;;;;;;6175042;23;20020;-85
2022/08/18 03:10:54;;;;;;;14.32;7.55;;;18.60;99.90;;;;;;6149881;23;20104;-85
2022/08/18 03:13:19;;;;;;;19.63;8.85;;;18.60;99.90;;;;;;6174308;23;20025;-85
2022/08/18 03:15:46;;;;;;;18.65;8.43;;;18.50;99.90;;;;;;6176375;23;20025;-85
2022/08/18 03:18:12;;;;;;;17.95;9.80;;;18.50;99.90;;;;;;6174305;23;20027;-85
2022/08/18 03:20:38;;;;;;;17.70;8.90;;;18.50;99.90;;;;;;6176491;22;20108;-85
2022/08/18 03:23:04;;;;;;;16.85;7.90;;;18.40;99.90;;;;;;6174775;23;20059;-85
2022/08/18 03:25:30;;;;;;;23.02;8.73;;;18.40;99.90;;;;;;6176837;23;20314;-85
2022/08/18 03:27:56;;;;;;;20.50;9.85;;;18.40;99.90;;;;;;6174155;22;20071;-85
2022/08/18 03:30:22;;;;;;;23.77;8.05;;;18.40;99.90;;;;;;6176602;23;20017;-85
2022/08/18 03:32:51;;;;;;;19.40;10.23;;;18.40;99.90;;;;;;6176352;23;20133;-85
2022/08/18 03:35:17;;;;;;;18.20;9.30;;;18.30;99.90;;;;;;6174474;22;20070;-85
2022/08/18 03:37:43;;;;;;;21.90;9.40;;;18.30;99.90;;;;;;6174406;22;20379;-85
2022/08/18 03:40:09;;;;;;;30.50;11.65;;;18.30;99.90;;;;;;6176730;22;20021;-85
2022/08/18 03:42:36;;;;;;;24.55;9.63;;;18.30;99.90;;;;;;6173387;23;20058;-85
2022/08/18 03:45:02;;;;;;;21.17;11.15;;;18.30;99.90;;;;;;6174521;22;20028;-85
2022/08/18 03:47:28;;;;;;;21.38;10.18;;;18.30;99.90;;;;;;6174429;23;20017;-85
2022/08/18 03:49:53;;;;;;;18.42;9.95;;;18.30;99.90;;;;;;6174221;22;20028;-85
2022/08/18 03:52:19;;;;;;;24.15;10.57;;;18.40;99.90;;;;;;6174660;23;20025;-85
2022/08/18 03:54:45;;;;;;;17.60;7.80;;;18.40;99.90;;;;;;6176345;22;20095;-85
2022/08/18 03:57:11;;;;;;;19.75;8.65;;;18.40;99.90;;;;;;6175765;23;20020;-85
2022/08/18 03:59:40;;;;;;;15.43;8.77;;;18.50;99.90;;;;;;6176266;22;20155;-85
2022/08/18 04:02:06;;;;;;;24.90;11.60;;;18.40;99.90;;;;;;6174545;22;20017;-85
2022/08/18 04:04:32;;;;;;;14.15;9.43;;;18.40;99.90;;;;;;6174863;23;20047;-85
2022/08/18 04:07:03;;;;;;;16.13;9.15;;;18.40;99.90;;;;;;6174862;23;20021;-85
2022/08/18 04:09:31;;;;;;;22.27;9.50;;;18.40;99.90;;;;;;6176074;23;20345;-85
2022/08/18 04:12:01;;;;;;;13.13;7.35;;;18.50;99.90;;;;;;6173588;23;20024;-85
2022/08/18 04:14:30;;;;;;;16.30;7.07;;;18.40;99.90;;;;;;6174437;23;20021;-85
2022/08/18 04:16:57;;;;;;;21.17;9.38;;;18.50;99.90;;;;;;6149827;22;20051;-85
2022/08/18 04:19:23;;;;;;;24.10;11.82;;;18.50;99.90;;;;;;6176217;23;20021;-86
2022/08/18 04:21:52;;;;;;;17.05;7.68;;;18.40;99.90;;;;;;6176369;22;20017;-85
2022/08/18 04:24:17;;;;;;;18.42;8.23;;;18.40;99.90;;;;;;6149653;22;20028;-85
2022/08/18 04:26:45;;;;;;;19.15;10.38;;;18.50;99.90;;;;;;6173563;23;20351;-85
2022/08/18 04:29:13;;;;;;;19.52;10.15;;;18.40;99.90;;;;;;6176150;23;20016;-85
2022/08/18 04:31:39;;;;;;;23.10;11.02;;;18.40;99.90;;;;;;6175988;23;20045;-85
2022/08/18 04:34:05;;;;;;;23.38;9.77;;;18.50;99.90;;;;;;6174938;23;20041;-85
2022/08/18 04:36:35;;;;;;;23.38;11.90;;;18.40;99.90;;;;;;6174772;23;20044;-85
2022/08/18 04:39:06;;;;;;;17.65;11.02;;;18.40;99.90;;;;;;6174973;23;20074;-85
2022/08/18 04:41:32;;;;;;;16.60;9.55;;;18.40;99.90;;;;;;6173285;23;20032;-85
2022/08/18 04:44:00;;;;;;;20.30;10.43;;;18.40;99.90;;;;;;6174373;23;20013;-85
2022/08/18 04:46:27;;;;;;;23.65;10.85;;;18.40;99.90;;;;;;6174881;23;20342;-85
2022/08/18 04:48:57;;;;;;;19.73;9.80;;;18.40;99.90;;;;;;6173791;23;20017;-85
2022/08/18 04:51:25;;;;;;;19.42;9.90;;;18.40;99.90;;;;;;6176447;23;20040;-85
2022/08/18 04:53:51;;;;;;;19.92;10.82;;;18.40;99.90;;;;;;6149496;23;20527;-85
2022/08/18 04:56:24;;;;;;;19.27;9.27;;;18.50;99.90;;;;;;6149217;22;20051;-85
2022/08/18 04:59:10;;;;;;;30.52;9.80;;;18.40;99.90;;;;;;6175799;23;20056;-85
2022/08/18 05:01:39;;;;;;;16.45;8.25;;;18.40;99.90;;;;;;6124515;23;20027;-85
2022/08/18 05:04:05;;;;;;;15.82;9.23;;;18.50;99.90;;;;;;6149442;23;20013;-85
2022/08/18 05:06:31;;;;;;;19.55;9.70;;;18.50;99.90;;;;;;6149914;23;20387;-85
2022/08/18 05:08:59;;;;;;;15.98;9.05;;;18.50;99.90;;;;;;6176163;23;20021;-85
2022/08/18 05:11:28;;;;;;;12.80;8.10;;;18.50;99.90;;;;;;6124452;23;20025;-84
2022/08/18 05:13:56;;;;;;;14.43;9.23;;;18.50;99.90;;;;;;6175894;23;20010;-85
2022/08/18 05:16:23;;;;;;;15.05;9.32;;;18.50;99.90;;;;;;6149719;23;20020;-85
2022/08/18 05:18:50;;;;;;;13.18;8.98;;;18.50;99.90;;;;;;6175609;23;20051;-85
2022/08/18 05:21:16;;;;;;;13.45;8.65;;;18.50;99.90;;;;;;6176050;23;20092;-85
2022/08/18 05:23:43;;;;;;;10.38;7.65;;;18.60;99.90;;;;;;6175227;23;20055;-85
2022/08/18 05:26:10;;;;;;;13.98;8.13;;;18.60;99.90;;;;;;6175864;23;20017;-85
2022/08/18 05:28:36;;;;;;;14.23;8.95;;;18.60;99.90;;;;;;6148646;23;20017;-85
2022/08/18 05:31:20;;;;;;;13.48;8.55;;;18.70;99.90;;;;;;6149348;23;20099;-85
2022/08/18 05:33:46;;;;;;;13.48;7.68;;;18.80;99.90;;;;;;6149041;23;20067;-85
2022/08/18 05:36:23;;;;;;;13.02;7.30;;;18.70;99.90;;;;;;6124828;23;20441;-85
2022/08/18 05:39:08;;;;;;;14.98;8.85;;;18.70;99.90;;;;;;6148326;23;20472;-85
2022/08/18 05:41:36;;;;;;;;;;;18.70;99.90;;;;;;6148889;23;20017;-85
2022/08/18 05:44:04;;;;;;;18.92;9.10;;;18.70;99.90;;;;;;6124401;23;19920;-85
2022/08/18 05:46:39;;;;;;;15.43;8.82;;;18.60;99.90;;;;;;6176035;23;20066;-85
2022/08/18 05:49:05;;;;;;;16.60;9.68;;;18.60;99.90;;;;;;6149159;23;20017;-85
2022/08/18 05:51:40;;;;;;;16.52;9.50;;;18.60;99.90;;;;;;6175779;23;20109;-85
2022/08/18 05:56:55;;;;;;;14.70;9.30;;;18.70;99.90;;;;;;6175152;22;20029;-85
2022/08/18 05:59:25;;;;;;;12.82;8.57;;;18.70;99.90;;;;;;6175881;23;20028;-85
2022/08/18 06:01:57;;;;;;;15.65;8.73;;;18.70;99.90;;;;;;6175205;23;20363;-85
2022/08/18 06:04:33;;;;;;;19.83;9.55;;;18.70;99.90;;;;;;6124346;23;20053;-85
2022/08/18 06:07:07;;;;;;;16.95;9.95;;;18.80;99.90;;;;;;6175605;23;20013;-85
2022/08/18 06:09:42;;;;;;;14.63;9.82;;;19.00;99.90;;;;;;6123952;23;20062;-85
2022/08/18 06:12:28;;;;;;;16.60;9.85;;;18.90;99.90;;;;;;6149506;23;20021;-85
2022/08/18 06:15:01;;;;;;;13.98;9.85;;;18.90;99.90;;;;;;6175318;23;20086;-85
2022/08/18 06:17:57;;;;;;;17.90;9.05;;;18.90;99.90;;;;;;6175871;23;20025;-85
2022/08/18 06:20:51;;;;;;;13.30;9.52;;;18.80;99.90;;;;;;6175621;23;20018;-85
2022/08/18 06:23:24;;;;;;;12.95;9.50;;;18.80;99.90;;;;;;6174311;23;20025;-85
2022/08/18 06:26:22;;;;;;;12.93;9.50;;;18.90;99.90;;;;;;6175475;23;20028;-85
2022/08/18 06:28:57;;;;;;;12.43;8.18;;;18.90;99.90;;;;;;6148334;23;20014;-85
2022/08/18 06:31:30;;;;;;;;;;;18.90;99.90;;;;;;6175861;23;20464;-85
2022/08/18 06:34:19;;;;;;;12.70;9.18;;;18.90;99.90;;;;;;6148314;22;19924;-85
2022/08/18 06:37:33;;;;;;;13.23;8.07;;;18.90;99.90;;;;;;6147791;23;20021;-85
2022/08/18 06:40:08;;;;;;;16.02;9.30;;;19.00;99.90;;;;;;6202882;23;20083;-85
2022/08/18 06:42:38;;;;;;;14.50;9.73;;;19.00;99.90;;;;;;6181172;23;20021;-85
2022/08/18 06:45:11;;;;;;;12.50;8.25;;;19.20;99.90;;;;;;6172191;23;20052;-85
2022/08/18 06:47:48;;;;;;;12.68;8.65;;;19.10;99.90;;;;;;6180317;23;20021;-85
2022/08/18 06:50:16;;;;;;;14.63;9.18;;;19.20;99.90;;;;;;6181569;23;20027;-85
2022/08/18 06:52:54;;;;;;;17.13;9.48;;;19.20;99.90;;;;;;6181783;23;20024;-84
2022/08/18 06:55:32;;;;;;;15.43;9.15;;;19.30;99.90;;;;;;6158215;23;20070;-85
2022/08/18 06:58:05;;;;;;;15.80;9.43;;;19.30;99.90;;;;;;6158344;23;20016;-85
2022/08/18 07:00:35;;;;;;;13.07;6.88;;;19.40;99.90;;;;;;6208443;23;20028;-85
2022/08/18 07:03:14;;;;;;;13.32;7.18;;;19.40;99.90;;;;;;6208233;23;20031;-85
2022/08/18 07:06:10;;;;;;;17.08;9.23;;;19.50;99.90;;;;;;6157265;23;20095;-85
2022/08/18 07:08:40;;;;;;;14.65;7.57;;;19.60;99.90;;;;;;6157798;23;20017;-85
2022/08/18 07:11:18;;;;;;;16.65;8.48;;;19.60;99.90;;;;;;6182863;23;20017;-85
2022/08/18 07:13:46;;;;;;;9.60;6.40;;;19.70;99.90;;;;;;6169452;23;20071;-85
2022/08/18 07:16:31;;;;;;;12.20;7.18;;;19.60;99.90;;;;;;6125405;23;20052;-85
2022/08/18 07:19:15;;;;;;;11.38;6.38;;;19.70;99.90;;;;;;6149613;23;20020;-85
2022/08/18 07:21:42;;;;;;;8.75;5.15;;;19.70;99.90;;;;;;6149108;23;20017;-85
2022/08/18 07:24:27;;;;;;;10.48;5.40;;;19.60;99.90;;;;;;6149754;23;20329;-85
2022/08/18 07:27:07;;;;;;;16.05;5.05;;;19.60;99.90;;;;;;6125157;23;20021;-85
2022/08/18 07:29:37;;;;;;;13.60;6.10;;;19.60;99.90;;;;;;6149327;23;20017;-85
2022/08/18 07:32:14;;;;;;;12.73;6.07;;;19.60;99.90;;;;;;6176514;23;20021;-85
2022/08/18 07:34:46;;;;;;;13.35;4.88;;;19.50;99.90;;;;;;6148898;23;20107;-85
2022/08/18 07:37:23;;;;;;;12.63;5.20;;;19.60;99.90;;;;;;6150379;23;20017;-85
2022/08/18 07:39:58;;;;;;;13.10;5.35;;;19.60;99.90;;;;;;6149704;23;20025;-85
2022/08/18 07:42:48;;;;;;;17.05;4.68;;;19.60;99.90;;;;;;6176443;23;20009;-85
2022/08/18 07:45:34;;;;;;;17.15;5.30;;;19.70;99.90;;;;;;6176468;23;20013;-85
2022/08/18 07:48:14;;;;;;;18.95;5.05;;;19.80;99.90;;;;;;6125534;23;20403;-85
2022/08/18 07:50:59;;;;;;;11.45;4.25;;;19.80;99.90;;;;;;6166200;23;20021;-84
2022/08/18 07:54:07;;;;;;;11.90;3.70;;;19.80;99.90;;;;;;6177075;22;20017;-84
2022/08/18 07:57:10;;;;;;;9.07;3.15;;;19.80;99.90;;;;;;6174595;22;20027;-85
2022/08/18 08:00:03;;;;;;;8.98;2.88;;;19.70;99.90;;;;;;6191145;23;20016;-85
2022/08/18 08:02:49;;;;;;;13.63;3.15;;;19.70;99.90;;;;;;6176407;23;20027;-85
2022/08/18 08:05:34;;;;;;;9.93;2.90;;;19.70;99.90;;;;;;6176107;22;20024;-85
2022/08/18 08:08:05;;;;;;;10.75;3.88;;;19.80;99.90;;;;;;6176138;23;20013;-85
2022/08/18 08:11:02;;;;;;;8.25;3.63;;;19.80;99.90;;;;;;6176237;23;20017;-85
2022/08/18 08:13:39;;;;;;;11.93;2.83;;;19.70;99.90;;;;;;6174833;23;20433;-85
2022/08/18 08:16:30;;;;;;;9.75;3.40;;;19.80;99.90;;;;;;6149513;23;20021;-85
2022/08/18 08:19:21;;;;;;;8.98;3.47;;;19.80;99.90;;;;;;6185959;23;20443;-85
2022/08/18 08:22:13;;;;;;;11.32;3.60;;;19.80;99.90;;;;;;6173328;23;20025;-84
2022/08/18 08:25:06;;;;;;;10.35;3.53;;;20.00;99.90;;;;;;6172923;23;20032;-85
2022/08/18 08:27:51;;;;;;;11.93;3.00;;;20.20;99.90;;;;;;6177949;23;20021;-85
2022/08/18 08:30:22;;;;;;;9.07;2.88;;;20.50;99.90;;;;;;6174054;23;20031;-85
2022/08/18 08:32:56;;;;;;;10.20;2.35;;;20.70;99.90;;;;;;6173971;22;20017;-85
2022/08/18 08:35:46;;;;;;;13.70;2.63;;;20.80;99.90;;;;;;6174357;23;20017;-85
2022/08/18 08:38:22;;;;;;;10.55;2.67;;;20.70;99.90;;;;;;6149379;23;20021;-85
2022/08/18 08:41:02;;;;;;;10.15;2.55;;;20.70;99.90;;;;;;6149285;23;20017;-85
2022/08/18 08:43:41;;;;;;;9.05;1.85;;;20.60;99.90;;;;;;6174749;22;20021;-85
2022/08/18 08:46:23;;;;;;;9.45;2.85;;;20.70;99.90;;;;;;6174577;22;20029;-85
2022/08/18 08:48:59;;;;;;;5.25;2.08;;;20.80;99.90;;;;;;6173432;22;20013;-84
2022/08/18 08:51:28;;;;;;;7.85;2.22;;;20.90;99.90;;;;;;6124847;23;20334;-84
2022/08/18 08:54:19;;;;;;;10.95;2.40;;;20.90;99.90;;;;;;6175602;23;20024;-85
2022/08/18 08:56:48;;;;;;;6.88;1.90;;;21.00;99.90;;;;;;6124186;23;20342;-85
2022/08/18 08:59:17;;;;;;;6.20;1.83;;;21.00;99.90;;;;;;6149409;23;20097;-85
2022/08/18 09:02:04;;;;;;;7.82;2.20;;;20.90;99.90;;;;;;6148404;23;20028;-85
2022/08/18 09:05:00;;;;;;;7.32;2.38;;;21.10;99.90;;;;;;6176113;23;20104;-84
2022/08/18 09:07:46;;;;;;;5.63;1.83;;;21.10;99.90;;;;;;6125128;23;20051;-85
2022/08/18 09:10:30;;;;;;;7.60;1.70;;;21.20;99.90;;;;;;6124952;23;20419;-85
2022/08/18 09:13:29;;;;;;;7.50;2.17;;;21.20;99.90;;;;;;6149112;23;20390;-85
2022/08/18 09:16:32;;;;;;;6.82;2.20;;;21.10;99.90;;;;;;6173034;23;20449;-85
2022/08/18 09:19:30;;;;;;;5.60;1.95;;;21.30;99.90;;;;;;6148519;23;20055;-85
2022/08/18 09:22:19;;;;;;;4.65;1.65;;;21.40;99.90;;;;;;6152616;23;20018;-85
2022/08/18 09:24:48;;;;;;;4.90;1.92;;;21.40;99.90;;;;;;6175700;23;20358;-85
2022/08/18 09:27:33;;;;;;;5.28;1.65;;;21.50;99.90;;;;;;6124545;23;20017;-85
2022/08/18 09:30:01;;;;;;;4.25;1.70;;;21.40;99.90;;;;;;6176245;23;20023;-85
2022/08/18 09:32:26;;;;;;;5.70;1.42;;;21.40;99.90;;;;;;6175168;23;20342;-85
2022/08/18 09:34:59;;;;;;;6.60;2.30;;;21.30;99.90;;;;;;6175803;23;20021;-85
2022/08/18 09:43:36;;;;;;;4.53;1.33;;;21.30;99.90;;;;;;6175536;22;20057;-85
2022/08/18 09:46:05;;;;;;;4.40;1.67;;;21.40;99.90;;;;;;6124006;23;20078;-85
2022/08/18 09:48:37;;;;;;;5.28;1.90;;;21.70;99.90;;;;;;6124507;23;20013;-85
2022/08/18 09:51:15;;;;;;;5.15;1.95;;;21.60;99.90;;;;;;6171364;23;20021;-85
2022/08/18 09:53:52;;;;;;;6.65;1.70;;;21.60;99.90;;;;;;6174046;22;20101;-85
2022/08/18 09:56:47;;;;;;;6.07;1.95;;;21.60;99.90;;;;;;6148928;23;20354;-85
2022/08/18 09:59:32;;;;;;;5.43;1.67;;;21.50;99.90;;;;;;6173896;23;20056;-85
2022/08/18 10:02:13;;;;;;;5.03;1.45;;;21.50;99.90;;;;;;6149089;23;20018;-85
2022/08/18 10:04:49;;;;;;;4.82;1.90;;;21.40;99.90;;;;;;6175203;22;20021;-85
2022/08/18 10:07:32;;;;;;;7.50;1.70;;;21.40;99.90;;;;;;6173901;22;20244;-85
2022/08/18 10:10:13;;;;;;;13.35;2.13;;;21.50;99.90;;;;;;6174145;22;20029;-85
2022/08/18 10:12:50;;;;;;;6.50;1.63;;;21.60;99.90;;;;;;6148618;23;20024;-85
2022/08/18 10:15:32;;;;;;;6.18;1.50;;;21.60;99.90;;;;;;6148348;23;20044;-85
2022/08/18 10:18:20;;;;;;;3.75;1.20;;;21.70;99.90;;;;;;6175758;23;20044;-85
2022/08/18 10:21:09;;;;;;;7.55;1.83;;;21.60;99.90;;;;;;6175336;23;20021;-85
2022/08/18 10:23:46;;;;;;;6.18;1.38;;;21.60;99.90;;;;;;6173682;23;20337;-85
2022/08/18 10:26:29;;;;;;;5.70;1.33;;;21.70;99.90;;;;;;6149283;22;20013;-84
2022/08/18 10:29:06;;;;;;;5.85;1.70;;;21.80;99.90;;;;;;6173595;23;20021;-85
2022/08/18 10:31:58;;;;;;;7.75;1.98;;;21.80;99.90;;;;;;6175022;22;20021;-85
2022/08/18 10:34:44;;;;;;;6.03;1.95;;;21.90;99.90;;;;;;6174990;22;20286;-84
2022/08/18 10:37:20;;;;;;;6.05;1.35;;;22.00;99.90;;;;;;6150126;23;20067;-85
2022/08/18 10:39:47;;;;;;;4.82;1.35;;;22.00;99.90;;;;;;6175863;22;20387;-84
2022/08/18 10:42:18;;;;;;;5.28;1.70;;;22.00;99.90;;;;;;6174829;23;20066;-85
2022/08/18 10:44:46;;;;;;;5.00;1.40;;;22.10;99.90;;;;;;6176128;22;20024;-85
2022/08/18 10:47:28;;;;;;;4.93;1.60;;;22.20;99.90;;;;;;6174924;22;20123;-85
2022/08/18 10:49:55;;;;;;;5.32;1.50;;;22.30;99.90;;;;;;6176147;22;20096;-85
2022/08/18 10:52:47;;;;;;;4.22;1.42;;;22.30;99.90;;;;;;6149615;23;20042;-85
2022/08/18 10:55:39;;;;;;;6.72;1.48;;;22.20;99.90;;;;;;6150542;23;20044;-85
2022/08/18 10:58:25;;;;;;;5.65;1.48;;;22.20;99.90;;;;;;6190630;23;20436;-85
2022/08/18 11:01:10;;;;;;;5.55;1.60;;;22.10;99.90;;;;;;6149579;23;20025;-84
2022/08/18 11:03:51;;;;;;;3.70;1.40;;;22.10;99.90;;;;;;6125149;23;20403;-85
2022/08/18 11:06:21;;;;;;;5.05;1.58;;;22.20;99.90;;;;;;6176861;23;20049;-84
2022/08/18 11:08:50;;;;;;;5.53;1.55;;;22.30;99.90;;;;;;6124993;23;20024;-85
2022/08/18 11:11:22;;;;;;;4.28;1.63;;;22.30;99.90;;;;;;6176705;23;20017;-85
2022/08/18 11:13:55;;;;;;;5.30;1.60;;;22.30;99.90;;;;;;6124871;23;20036;-85
2022/08/18 11:16:38;;;;;;;9.10;1.80;;;22.30;99.90;;;;;;6149980;23;20036;-85
2022/08/18 11:19:12;;;;;;;6.20;1.47;;;22.40;99.90;;;;;;6176643;23;20052;-85
2022/08/18 11:21:42;;;;;;;2.87;1.53;;;22.60;99.90;;;;;;6149805;23;20096;-84
2022/08/18 11:24:19;;;;;;;4.53;1.40;;;22.70;99.90;;;;;;6149548;23;20241;-85
2022/08/18 11:26:50;;;;;;;4.35;1.63;;;22.80;99.90;;;;;;6124439;23;20021;-85
2022/08/18 11:29:33;;;;;;;4.28;1.67;;;22.80;99.90;;;;;;6150217;23;20017;-85
2022/08/18 11:32:15;;;;;;;2.83;1.20;;;22.90;99.90;;;;;;6149973;23;20017;-85
2022/08/18 11:35:02;;;;;;;5.05;1.73;;;23.00;99.90;;;;;;6149726;23;20025;-84
2022/08/18 11:37:40;;;;;;;4.43;1.50;;;23.10;99.90;;;;;;6149829;23;20596;-85
2022/08/18 11:40:09;;;;;;;4.93;1.77;;;23.10;99.90;;;;;;6149813;23;20031;-84
2022/08/18 11:42:52;;;;;;;6.63;2.05;;;23.10;99.90;;;;;;6124450;23;20096;-84
2022/08/18 11:45:24;;;;;;;7.57;2.13;;;23.20;99.90;;;;;;6149714;23;20085;-85
2022/08/18 11:48:12;;;;;;;4.28;1.73;;;23.20;99.90;;;;;;6149665;23;20013;-85
2022/08/18 11:51:03;;;;;;;6.32;1.67;;;23.20;99.90;;;;;;6175555;23;20070;-84
2022/08/18 11:53:49;;;;;;;4.47;1.88;;;23.20;99.90;;;;;;6176196;23;20078;-84
2022/08/18 11:56:25;;;;;;;5.68;1.67;;;23.10;99.90;;;;;;6149157;23;20029;-85
2022/08/18 11:58:56;;;;;;;9.20;1.90;;;23.10;99.90;;;;;;6124753;23;20025;-85
2022/08/18 12:01:40;;;;;;;4.38;1.60;;;23.00;99.90;;;;;;6149724;23;20365;-85
2022/08/18 12:04:23;;;;;;;4.13;1.58;;;23.00;99.90;;;;;;6125305;23;20537;-85
2022/08/18 12:06:52;;;;;;;3.88;1.58;;;23.00;99.90;;;;;;6176262;23;20044;-85
2022/08/18 12:09:28;;;;;;;5.68;1.70;;;23.00;99.90;;;;;;6125035;23;20021;-85
2022/08/18 12:12:17;;;;;;;6.15;1.63;;;23.20;99.90;;;;;;6124534;23;20040;-85
2022/08/18 12:14:51;;;;;;;6.38;1.60;;;23.30;99.90;;;;;;6149679;23;20142;-84
2022/08/18 12:17:17;;;;;;;5.50;2.30;;;23.30;99.90;;;;;;6125029;23;20349;-85
2022/08/18 12:19:43;;;;;;;5.88;1.67;;;23.30;99.90;;;;;;6124735;23;20074;-85
2022/08/18 12:22:28;;;;;;;5.35;1.38;;;23.20;99.90;;;;;;6150265;23;20379;-85
2022/08/18 12:24:54;;;;;;;7.88;1.70;;;23.20;99.90;;;;;;6148275;23;20024;-85
2022/08/18 12:27:23;;;;;;;4.00;1.30;;;23.30;99.90;;;;;;6125304;23;20021;-85
2022/08/18 12:29:51;;;;;;;4.18;1.63;;;23.40;99.90;;;;;;6149396;23;20479;-85
2022/08/18 12:32:18;;;;;;;5.93;1.65;;;23.60;99.90;;;;;;6149484;23;20035;-85
2022/08/18 12:34:44;;;;;;;3.40;1.40;;;23.70;99.90;;;;;;6149489;23;20056;-85
2022/08/18 12:37:15;;;;;;;5.70;2.05;;;23.70;99.90;;;;;;6150263;23;20017;-85
2022/08/18 12:39:41;;;;;;;5.25;1.67;;;23.80;99.90;;;;;;6124072;23;20066;-85
2022/08/18 12:42:07;;;;;;;4.22;1.80;;;23.80;99.90;;;;;;6125056;23;20020;-85
2022/08/18 12:44:33;;;;;;;5.53;1.45;;;23.80;99.90;;;;;;6149161;23;20031;-85
2022/08/18 12:47:01;;;;;;;6.00;1.90;;;23.80;99.90;;;;;;6149865;23;20092;-85
2022/08/18 12:49:27;;;;;;;2.72;1.35;;;23.80;99.90;;;;;;6127832;23;20448;-85
2022/08/18 12:51:54;;;;;;;4.88;1.50;;;23.90;99.90;;;;;;6174072;23;20025;-85
2022/08/18 12:54:20;;;;;;;4.60;1.60;;;24.00;99.90;;;;;;6149012;22;20024;-84
2022/08/18 12:56:50;;;;;;;4.78;1.50;;;24.20;99.90;;;;;;6149337;23;20021;-85
2022/08/18 12:59:16;;;;;;;4.05;1.42;;;24.20;99.90;;;;;;6149196;22;20059;-85
2022/08/18 13:01:42;;;;;;;6.22;1.40;;;24.10;99.90;;;;;;6174335;23;20114;-85
2022/08/18 13:04:08;;;;;;;4.55;1.70;;;24.10;99.90;;;;;;6176252;23;20021;-85
2022/08/18 13:06:39;;;;;;;4.47;1.52;;;24.10;99.90;;;;;;6174431;22;20017;-84
2022/08/18 13:09:05;;;;;;;3.47;1.30;;;24.10;99.90;;;;;;6173434;22;20445;-85
2022/08/18 13:11:31;;;;;;;4.18;1.52;;;24.30;99.90;;;;;;6149503;22;20096;-85
2022/08/18 13:13:56;;;;;;;3.55;1.20;;;24.30;99.90;;;;;;6175484;23;20059;-85
2022/08/18 13:16:23;;;;;;;4.53;1.30;;;24.40;99.90;;;;;;6175037;23;20032;-85
2022/08/18 13:18:49;;;;;;;6.55;1.52;;;24.40;99.90;;;;;;6149108;23;20017;-85
2022/08/18 13:21:17;;;;;;;4.40;1.50;;;24.40;99.90;;;;;;6149311;23;20017;-85
2022/08/18 13:23:43;;;;;;;4.35;1.73;;;24.40;99.90;;;;;;6148227;22;20449;-84
2022/08/18 13:26:17;;;;;;;3.15;1.42;;;24.40;99.90;;;;;;6148971;23;20350;-85
2022/08/18 13:28:43;;;;;;;3.80;1.65;;;24.50;99.90;;;;;;6174230;22;20013;-85
2022/08/18 13:31:08;;;;;;;5.78;1.75;;;24.70;99.90;;;;;;6149328;23;20079;-85
2022/08/18 13:33:34;;;;;;;4.85;1.73;;;24.70;99.90;;;;;;6173773;23;20013;-85